NCAR-RAP Real-Time Weather Data

Output produced by METARs form (21 May 2019  11:02 UTC)
found at http://weather.rap.ucar.edu/surface/
 
RJOR 211000Z 28006KT 9999 FEW040 BKN/// 18/13 Q1006
RJOR 210900Z 29007KT 9999 FEW040 BKN/// 19/13 Q1005
RJOR 210800Z 30007KT 9999 FEW040 BKN/// 20/14 Q1005
RJOR 210700Z 31006KT 9999 FEW045 BKN/// 20/13 Q1005
RJOR 210600Z 32006KT 9999 FEW045 SCT150 BKN/// 20/13 Q1005
RJOR 210500Z 33007KT 9999 FEW045 BKN/// 20/12 Q1005
RJOR 210400Z 30008KT 9999 FEW045 SCT/// 20/14 Q1005
RJOR 210300Z 30009KT 9999 FEW040 20/15 Q1005
RJOR 210200Z 29011KT 9999 FEW040 20/15 Q1006
RJOR 210100Z 29009KT 9999 FEW035 20/14 Q1006
RJOR 210000Z 28012KT 9999 FEW030 SCT/// 20/15 Q1006
RJOR 202300Z 28010KT 9999 FEW030 SCT/// 19/14 Q1005
RJOR 202200Z 25006KT 9999 FEW035 SCT/// 17/13 Q1005
RJOR 202130Z 24004KT 210V280 9999 FEW035 SCT/// 17/13 Q1005
RJOR 202110Z 23005KT 190V260 9999 FEW035 SCT/// 17/13 Q1005 RMK 1CU035 A2968
RJOR 201200Z 29018KT 4000 SHRA BR FEW010 SCT020 BKN030 19/17 Q1003
RJOR 201100Z 15013KT 9999 -SHRA FEW010 SCT020 BKN040 20/17 Q1001
RJOR 201000Z 16014G29KT 130V200 9999 -SHRA FEW010 SCT020 BKN040 21/16 Q1002
RJOR 200900Z 15013KT 130V200 9999 -SHRA FEW010 SCT020 BKN040 21/16 Q1003
RJOR 200800Z 16018G30KT 120V200 9999 FEW015 SCT030 BKN045 22/15 Q1002
RJOR 200700Z 17017G33KT 140V210 9999 FEW020 SCT030 BKN045 23/15 Q1003
RJOR 200600Z 16014G26KT 120V220 9999 FEW020 SCT030 BKN045 23/15 Q1003
RJOR 200500Z 16021G40KT 9999 FEW020 SCT030 BKN045 24/15 Q1003
RJOR 200400Z 17023G41KT 140V220 9999 FEW030 SCT040 BKN130 24/15 Q1004
RJOR 200300Z 16021G40KT 130V210 9999 FEW030 SCT045 BKN130 24/14 Q1005
RJOR 200200Z 16022G36KT 120V190 9999 FEW030 SCT130 BKN150 24/14 Q1004
RJOR 200100Z 15020G37KT 130V210 9999 FEW030 SCT130 BKN150 24/15 Q1005
RJOR 200000Z 16021G38KT 9999 -SHRA FEW030 SCT100 BKN130 22/14 Q1005
RJOR 192300Z 16025G46KT 9999 -SHRA FEW030 SCT100 BKN130 22/14 Q1006
RJOR 192200Z 16026G42KT 9999 FEW035 SCT080 BKN/// 22/13 Q1006
RJOR 192130Z 16023G39KT 9999 FEW035 SCT080 BKN/// 21/13 Q1007
RJOR 192110Z 16023G38KT 130V190 9999 FEW035 SCT080 BKN130 21/13 Q1007 RMK 1CU035 3AC080 5AC130 A2975
RJOR 191200Z 16019G32KT 130V190 9999 -RA FEW035 SCT070 BKN120 21/14 Q1012
RJOR 191100Z 16018G32KT 130V190 9999 FEW035 SCT120 BKN150 22/13 Q1012
RJOR 191000Z 16018G33KT 130V200 9999 FEW035 SCT120 BKN150 22/14 Q1012
RJOR 190900Z 16014G24KT 9999 FEW035 SCT150 BKN/// 23/14 Q1012
RJOR 190800Z 17013G24KT 130V200 9999 FEW040 BKN/// 24/14 Q1012
RJOR 190700Z 16015G26KT 9999 FEW045 BKN/// 25/14 Q1012
RJOR 190600Z 16019G32KT 9999 FEW045 BKN/// 26/13 Q1013
RJOR 190500Z 15024KT 9999 FEW040 BKN/// 27/12 Q1013
RJOR 190400Z 17018G28KT 9999 FEW040 BKN/// 27/13 Q1013
RJOR 190300Z 17014KT 140V210 9999 FEW040 BKN/// 26/12 Q1013
RJOR 190200Z 18017KT 9999 FEW040 BKN/// 26/13 Q1014
RJOR 190100Z 16016G26KT 9999 FEW040 BKN/// 24/12 Q1014
RJOR 190000Z 17017G27KT 9999 FEW040 BKN/// 24/12 Q1015